Fort Ross, CA

12:34 PM PDT on September 01, 2014 (GMT -0700)
APRSWXNET Cazadero CA US | Change Station
CLOSE
Current Station
Personal Weather Station
Location: Sheridan, CA
Elevation: 882 ft
Nearby Weather Stations

Elev 882 ft 38.52 °N, 123.05 °W | Updated 31 minutes ago

Clear
Clear
80 °F
Feels Like 81 °F
N
0
Wind Variable Wind from ESE
Gusts 0.0 mph

Today
High -- | Low -- °F
--% Chance of Precip.
Yesterday
High -- | Low -- °F
Precip. -- in
6:42 AM 7:42 PM
Waxing Crescent, 43% visible
Pressure 29.81 in
Visibility 6.0 miles
Clouds Clear
Heat Index 81 °F
Dew Point 60 °F
Humidity 50%
Rainfall 0.00 in
Snow Depth Not available.
UV 8 out of 12
Pollen 8.40 out of 12
Ozone Good
PM2.5 Moderate
Flu Activity Not available.
METAR KSTS 011853Z 15006KT 6SM HZ CLR 28/12 A2983 RMK AO2 SLP094 T02780122

More Conditions Fewer Conditions

Pressure 29.81 in
Visibility 6.0 miles
Clouds Clear
Heat Index 81 °F
Dew Point 60 °F
Humidity 50%
Rainfall 0.00 in
Snow Depth Not available.
UV 8 out of 12
Pollen 8.40 out of 12
Ozone Good
PM2.5 Moderate
Flu Activity Not available.
METAR KSTS 011853Z 15006KT 6SM HZ CLR 28/12 A2983 RMK AO2 SLP094 T02780122

More Conditions Fewer Conditions

10-Day Weather Forecast

Almanac

Astronomy

Sep. 01, 2014 Rise Set
Actual Time 6:42 AM PDT 7:42 PM PDT
Civil Twilight 6:15 AM PDT 8:09 PM PDT
Nautical Twilight 5:42 AM PDT 8:41 PM PDT
Astronomical Twilight 5:09 AM PDT 9:15 PM PDT
Moon 1:28 PM PDT 11:53 PM PDT
Length of Visible Light 13h 54m
Length of Day
13h 00m
Tomorrow will be 2m 23s shorter.
Waxing Crescent, 43% of the Moon is Illuminated
Today
Waxing Crescent
Sep 2
First Quarter
Sep 8
Full
Sep 15
Last Quarter
Sep 24
New

Today's Extremes

State Highs State Lows

Community

WunderPhotos

Upload Photos

1,749,385 photos uploaded!

WunderBlogs® & News

Nearby

Air Quality

  Air Quality AQ Index Pollutant
Yesterday Good
PM2.5
Yesterday Good
OZONE
Current Moderate
PM2.5
Current Good
OZONE
Monday Good
PM2.5
Tuesday Good
PM2.5
Wednesday Good
PM2.5
Thursday Good
PM2.5
Friday Good
PM2.5

Snow Depth

Station Depth Elevation
Rubicon #2 0 in 7500 ft
Fallen Leaf 0 in 6300 ft
Blue Lakes 0 in 8000 ft
Leavitt Meadows 0 in 7200 ft
Summit Meadow 0 in 9122 ft

Earthquake Activity

City Distance Mag. Time & Date
Gilroy, California 140 miles 3.5 9:10 AM PDT
2014-09-01
Green Valley, California 57 miles 2.5 6:37 AM PDT
2014-08-31
Napa, California 49 miles 3.2 1:56 AM PDT
2014-08-31
Gonzales, California 167 miles 2.7 9:48 PM PDT
2014-08-30
Minimum magnitude displayed is 2.5.

Coastal Water Temperatures

Place Temperature
Point Reyes, CA 57.9 °F
Arena Cove, CA 55.0 °F
San Francisco, CA 66.0 °F
Richmond, CA 68.0 °F

Nearby Weather Stations